Language: 


Des rapports , des résumés tant et plus, au choix de chacun....


Données statistiques de la station
Quotidien Rapport Février 28, 2017 Unités:  Anglais    Métrique   les deux
« Précédent Jour
Suivant Jour »
Quotidien Hebdomadaire Mensuel Annuel Actuel
  Haut: Bas: Moyen:
Température: 46.9 °F 36.9 °F 41.2 °F
Pt de rosée: 43.7 °F 32.2 °F 37.4 °F
Humidité: 98 % 59 % 87 %
Vitesse du vent: 26.8 mph 0 mph 10.7 mph
Rafales: 30.9 mph - -
Vent:- - WSW
Pression: 29.4 in 29.1 in -
Précipitation: 0.33 in    
Historical Graphs
 
 
Données statistiques pour Février 28, 2017
Heure Température Point de rosée Pression Vent Vitesse du vent Refales Humidité Pluie (taux horaire)
00:04 39.7 °F 38.7 °F 29.2 in SW 15.2 mph 15.2 mph 96 % 0.01 in
00:09 39.9 °F 38.7 °F 29.2 in SW 15.2 mph 15.2 mph 95 % 0.01 in
00:14 40.1 °F 38.5 °F 29.2 in WSW 11.9 mph 15.2 mph 94 % 0.01 in
00:19 40.3 °F 37.9 °F 29.2 in SSW 18.8 mph 18.8 mph 91 % 0.01 in
00:24 40.5 °F 37.2 °F 29.2 in SSW 18.8 mph 18.8 mph 88 % 0.01 in
00:29 40.5 °F 37.2 °F 29.2 in SW 11.9 mph 18.8 mph 88 % 0.01 in
00:34 40.5 °F 36.9 °F 29.2 in WSW 11.4 mph 18.8 mph 87 % 0.01 in
00:39 40.6 °F 37 °F 29.2 in SW 10.3 mph 12.1 mph 87 % 0.01 in
00:44 40.8 °F 37 °F 29.2 in SSW 10.3 mph 12.8 mph 86 % 0.01 in
00:49 41 °F 36.9 °F 29.2 in SW 13.4 mph 13.4 mph 85 % 0.01 in
00:54 41.2 °F 36.7 °F 29.2 in SW 10.7 mph 13.4 mph 84 % 0.01 in
00:59 41.2 °F 36.7 °F 29.2 in SW 10.7 mph 13.4 mph 84 % 0 in
01:04 41.4 °F 36.9 °F 29.2 in SW 10.7 mph 10.7 mph 84 % 0 in
01:09 41.4 °F 36.7 °F 29.2 in SSW 12.8 mph 12.8 mph 83 % 0 in
01:14 41.4 °F 36.7 °F 29.2 in WSW 10.5 mph 12.8 mph 83 % 0 in
01:19 41.5 °F 36.7 °F 29.2 in SSW 12.8 mph 12.8 mph 83 % 0 in
01:24 41.5 °F 36.1 °F 29.2 in SW 18.8 mph 18.8 mph 81 % 0 in
01:29 41.7 °F 36.3 °F 29.2 in WSW 17.2 mph 18.8 mph 81 % 0 in
01:34 41.7 °F 35.8 °F 29.2 in SW 10.7 mph 18.8 mph 79 % 0 in
01:39 41.7 °F 35.8 °F 29.2 in WSW 10.5 mph 19.5 mph 79 % 0 in
01:44 41.5 °F 35.4 °F 29.2 in SSW 13.4 mph 19.5 mph 79 % 0 in
01:49 41.5 °F 35.2 °F 29.2 in SSW 12.5 mph 17.7 mph 78 % 0 in
01:54 41.5 °F 35.2 °F 29.2 in SW 12.3 mph 17.2 mph 78 % 0 in
01:59 41.4 °F 35.1 °F 29.2 in SW 11 mph 17.2 mph 78 % 0 in
02:04 41.4 °F 35.1 °F 29.2 in SW 12.5 mph 13 mph 78 % 0 in
02:09 41.4 °F 34.7 °F 29.2 in SW 7.8 mph 13.2 mph 77 % 0 in
02:14 41.2 °F 34.5 °F 29.2 in SSW 10.5 mph 13.2 mph 77 % 0 in
02:19 41.2 °F 34.5 °F 29.2 in SSW 11 mph 12.8 mph 77 % 0 in
02:24 41.2 °F 34.5 °F 29.2 in SSW 13 mph 15.2 mph 77 % 0 in
02:29 41.2 °F 34.5 °F 29.2 in SW 11 mph 15.2 mph 77 % 0 in
02:34 41.2 °F 34.5 °F 29.2 in SSW 10.3 mph 14.5 mph 77 % 0 in
02:39 41.2 °F 34.5 °F 29.2 in WSW 13.2 mph 15.9 mph 77 % 0 in
02:44 41 °F 34.7 °F 29.2 in WSW 12.8 mph 15.9 mph 78 % 0 in
02:49 41 °F 34.7 °F 29.2 in SW 12.8 mph 16.3 mph 78 % 0 in
02:54 41 °F 34.7 °F 29.1 in SSW 7.8 mph 16.3 mph 78 % 0 in
02:59 41 °F 34.7 °F 29.1 in SSW 12.3 mph 15.2 mph 78 % 0 in
03:04 41 °F 35.1 °F 29.1 in SW 9.8 mph 13 mph 79 % 0 in
03:09 41 °F 35.1 °F 29.1 in WSW 12.3 mph 13.9 mph 79 % 0 in
03:14 41 °F 34.7 °F 29.1 in SSW 12.8 mph 17.2 mph 78 % 0 in
03:19 41 °F 34.7 °F 29.1 in SSW 13.2 mph 17.2 mph 78 % 0 in
03:24 41.2 °F 34.9 °F 29.1 in SW 10.3 mph 13.9 mph 78 % 0 in
03:29 41 °F 34.7 °F 29.1 in SW 13 mph 16.1 mph 78 % 0 in
03:34 41.2 °F 34.9 °F 29.1 in SSW 9.8 mph 16.8 mph 78 % 0 in
03:39 41.2 °F 34.9 °F 29.1 in SSW 11 mph 16.8 mph 78 % 0 in
03:44 41.2 °F 34.9 °F 29.1 in SW 10.1 mph 14.5 mph 78 % 0 in
03:49 41.2 °F 34.9 °F 29.1 in SSW 7.8 mph 15.9 mph 78 % 0 in
03:54 41 °F 34.7 °F 29.1 in SW 11 mph 15.9 mph 78 % 0 in
03:59 41 °F 35.1 °F 29.1 in WSW 16.8 mph 16.8 mph 79 % 0 in
04:04 40.8 °F 35.1 °F 29.1 in WSW 11 mph 18.8 mph 80 % 0 in
04:09 40.8 °F 35.4 °F 29.1 in SW 11.4 mph 18.8 mph 81 % 0 in
04:14 40.8 °F 35.4 °F 29.1 in WSW 8.5 mph 15.9 mph 81 % 0 in
04:19 40.8 °F 35.4 °F 29.1 in SSW 8.7 mph 15.2 mph 81 % 0 in
04:24 40.6 °F 35.6 °F 29.1 in SW 6.3 mph 14.8 mph 82 % 0 in
04:29 40.6 °F 35.6 °F 29.1 in SW 8.1 mph 14.1 mph 82 % 0 in
04:34 40.6 °F 35.6 °F 29.1 in WSW 12.1 mph 17 mph 82 % 0 in
04:39 40.8 °F 35.4 °F 29.1 in WSW 13 mph 17.4 mph 81 % 0 in
04:44 40.8 °F 35.4 °F 29.1 in SW 10.7 mph 17.4 mph 81 % 0 in
04:49 41 °F 35.2 °F 29.1 in SSW 11 mph 15.9 mph 80 % 0 in
04:54 41 °F 35.1 °F 29.1 in WSW 11.9 mph 15.9 mph 79 % 0 in
04:59 41 °F 35.1 °F 29.1 in SSW 14.8 mph 15.2 mph 79 % 0 in
05:04 41 °F 34.7 °F 29.1 in WSW 13.4 mph 15.4 mph 78 % 0 in
05:09 41 °F 34.7 °F 29.1 in West 12.5 mph 15.9 mph 78 % 0 in
05:14 40.8 °F 34.5 °F 29.1 in WSW 14.8 mph 17.4 mph 78 % 0 in
05:19 40.8 °F 34.5 °F 29.1 in WSW 10.1 mph 17.4 mph 78 % 0 in
05:24 41 °F 34.7 °F 29.1 in WSW 13 mph 17.4 mph 78 % 0 in
05:29 41 °F 34.3 °F 29.1 in SW 16.1 mph 23 mph 77 % 0 in
05:34 41.4 °F 34.7 °F 29.1 in WSW 14.8 mph 23.7 mph 77 % 0 in
05:39 41.4 °F 35.1 °F 29.1 in SW 17.7 mph 23.7 mph 78 % 0 in
05:44 41.4 °F 34.7 °F 29.1 in SW 26.8 mph 26.8 mph 77 % 0 in
05:49 41.4 °F 35.1 °F 29.1 in SSW 13.9 mph 26.8 mph 78 % 0 in
05:54 41.4 °F 35.1 °F 29.1 in SSW 17.2 mph 22.4 mph 78 % 0 in
05:59 41 °F 34.7 °F 29.1 in WSW 15.4 mph 20.6 mph 78 % 0 in
06:04 40.8 °F 34.5 °F 29.1 in WSW 13.9 mph 23.9 mph 78 % 0 in
06:09 40.6 °F 35.1 °F 29.1 in WSW 20.4 mph 28.6 mph 80 % 0 in
06:14 40.5 °F 35.1 °F 29.1 in WSW 13 mph 28.6 mph 81 % 0 in
06:19 40.1 °F 35.4 °F 29.1 in SW 17 mph 26.8 mph 83 % 0 in
06:24 40.1 °F 35.8 °F 29.1 in SSW 17 mph 23.5 mph 84 % 0 in
06:29 40.1 °F 36 °F 29.1 in SW 19.9 mph 23.5 mph 85 % 0 in
06:34 40.3 °F 36.1 °F 29.1 in SW 22.4 mph 23.5 mph 85 % 0 in
06:39 40.3 °F 36.1 °F 29.1 in WSW 23 mph 23 mph 85 % 0 in
06:44 40.3 °F 36.1 °F 29.1 in WSW 19.5 mph 24.2 mph 85 % 0 in
06:49 40.5 °F 36.7 °F 29.1 in WSW 22.1 mph 24.6 mph 86 % 0 in
06:54 40.5 °F 36.7 °F 29.2 in WSW 14.5 mph 27.3 mph 86 % 0 in
06:59 40.3 °F 36.3 °F 29.2 in SW 17.4 mph 27.3 mph 86 % 0 in
07:04 39.9 °F 35.4 °F 29.2 in SW 21.9 mph 24.6 mph 84 % 0 in
07:09 39.7 °F 35.2 °F 29.1 in WSW 26.2 mph 26.2 mph 84 % 0 in
07:14 39.7 °F 35.2 °F 29.1 in WSW 13.2 mph 26.2 mph 84 % 0 in
07:19 39.6 °F 35.4 °F 29.1 in WSW 15.2 mph 26.2 mph 85 % 0 in
07:24 39.6 °F 35.4 °F 29.1 in SW 12.5 mph 22.4 mph 85 % 0 in
07:29 39.4 °F 35.6 °F 29.1 in SSW 15.4 mph 22.8 mph 86 % 0 in
07:34 39.2 °F 35.8 °F 29.1 in SSW 14.3 mph 22.8 mph 87 % 0 in
07:39 39.2 °F 35.8 °F 29.2 in SW 12.3 mph 22.4 mph 87 % 0 in
07:44 39.2 °F 35.8 °F 29.2 in WSW 22.4 mph 22.4 mph 87 % 0 in
07:49 39.2 °F 35.8 °F 29.2 in SW 15.9 mph 25.3 mph 87 % 0 in
07:54 39.2 °F 35.8 °F 29.2 in WSW 18.1 mph 25.3 mph 87 % 0 in
07:59 39.2 °F 35.8 °F 29.2 in WSW 16.6 mph 25.9 mph 87 % 0 in
08:04 39.2 °F 35.8 °F 29.2 in WSW 18.1 mph 25.9 mph 87 % 0 in
08:09 39.2 °F 35.8 °F 29.2 in WSW 26.8 mph 30.9 mph 87 % 0 in
08:14 38.8 °F 36 °F 29.2 in WSW 22.8 mph 30.9 mph 89 % 0 in
08:16 38.7 °F 36 °F 29.2 in WSW 21.3 mph 30.9 mph 90 % 0 in
08:21 37.9 °F 35.6 °F 29.2 in WSW 19.7 mph 26.8 mph 91 % 0 in
08:26 37.8 °F 35.8 °F 29.2 in WSW 17.4 mph 23.7 mph 92 % 0 in
08:31 37.6 °F 35.6 °F 29.2 in SSW 13.9 mph 19.7 mph 93 % 0 in
08:36 37.2 °F 35.8 °F 29.2 in WSW 12.3 mph 17.9 mph 94 % 0.01 in
08:41 37.2 °F 35.8 °F 29.2 in SW 13 mph 16.3 mph 94 % 0.01 in
08:46 37.2 °F 36 °F 29.2 in WSW 14.3 mph 14.3 mph 95 % 0.01 in
08:51 37.2 °F 36 °F 29.2 in West 11.9 mph 14.3 mph 95 % 0.03 in
08:56 37 °F 36.1 °F 29.2 in WSW 9.8 mph 14.3 mph 96 % 0.03 in
09:01 36.9 °F 36 °F 29.2 in WSW 7.8 mph 11.9 mph 96 % 0.06 in
09:06 36.9 °F 36.1 °F 29.2 in WSW 8.7 mph 11.4 mph 97 % 0.06 in
09:11 36.9 °F 36.1 °F 29.2 in SW 8.1 mph 10.7 mph 97 % 0.06 in
09:16 36.9 °F 36.1 °F 29.2 in SW 8.1 mph 10.3 mph 97 % 0.06 in
09:21 37 °F 36.3 °F 29.2 in SW 5.8 mph 8.1 mph 97 % 0.06 in
09:26 37 °F 36.3 °F 29.2 in WSW 7.8 mph 8.1 mph 97 % 0.09 in
09:31 37 °F 36.3 °F 29.2 in WSW 5.8 mph 7.8 mph 97 % 0.09 in
09:36 37 °F 36.3 °F 29.2 in WSW 4.9 mph 7.8 mph 97 % 0.09 in
09:41 37.2 °F 36.5 °F 29.2 in WSW 5.4 mph 6.5 mph 97 % 0.09 in
09:46 37.2 °F 36.5 °F 29.2 in SW 4 mph 6.5 mph 97 % 0.09 in
09:51 37.2 °F 36.5 °F 29.2 in WSW 6 mph 6 mph 97 % 0.07 in
09:56 37 °F 36.7 °F 29.2 in WSW 6 mph 6 mph 98 % 0.06 in
10:01 36.9 °F 36.3 °F 29.2 in WSW 6 mph 6 mph 98 % 0.04 in
10:06 37 °F 36.7 °F 29.2 in WSW 6 mph 6 mph 98 % 0.04 in
10:11 37.2 °F 36.9 °F 29.2 in WSW 6 mph 6 mph 98 % 0.04 in
10:16 37.6 °F 37 °F 29.2 in WSW 6 mph 6 mph 98 % 0.04 in
10:21 37.8 °F 37.2 °F 29.2 in Calm     98 % 0.03 in
10:26 37.8 °F 37.2 °F 29.2 in Calm     98 % 0.02 in
10:31 37.9 °F 37.6 °F 29.2 in Calm     98 % 0.02 in
10:36 38.5 °F 37.8 °F 29.2 in Calm     98 % 0.01 in
10:41 38.7 °F 38.1 °F 29.2 in Calm     98 % 0.01 in
10:46 39.4 °F 38.8 °F 29.2 in Calm     98 % 0.01 in
10:51 39.7 °F 39.2 °F 29.2 in South 1.3 mph 1.3 mph 98 % 0.01 in
10:56 40.5 °F 39.9 °F 29.2 in South 1.3 mph 1.3 mph 98 % 0.01 in
11:01 40.6 °F 40.1 °F 29.2 in Calm   1.3 mph 98 % 0.01 in
11:06 40.5 °F 39.9 °F 29.2 in Calm   1.3 mph 98 % 0.01 in
11:11 40.5 °F 39.9 °F 29.2 in Calm   1.3 mph 98 % 0.01 in
11:12 40.5 °F 39.9 °F 29.2 in Calm   1.3 mph 98 % 0.01 in
11:17 40.5 °F 39.9 °F 29.2 in Calm     98 % 0.01 in
11:22 40.3 °F 39.6 °F 29.2 in Calm     97 % 0 in
11:27 39.9 °F 39.2 °F 29.2 in Calm     97 % 0 in
11:32 39.9 °F 39.2 °F 29.2 in Calm     97 % 0 in
11:37 39.9 °F 39.2 °F 29.2 in Calm     97 % 0 in
11:42 40.1 °F 39.4 °F 29.2 in Calm     97 % 0 in
11:47 39.9 °F 39.2 °F 29.2 in Calm     97 % 0 in
11:52 39.7 °F 39 °F 29.2 in West 3.8 mph 3.8 mph 97 % 0 in
11:57 39.6 °F 38.8 °F 29.2 in West 3.8 mph 3.8 mph 97 % 0 in
12:02 39.2 °F 38.5 °F 29.2 in West 3.8 mph 3.8 mph 97 % 0 in
12:07 39.2 °F 38.5 °F 29.2 in West 3.8 mph 3.8 mph 97 % 0 in
12:12 39.2 °F 38.5 °F 29.2 in West 3.8 mph 3.8 mph 97 % 0 in
12:17 38.8 °F 38.1 °F 29.2 in West 3.8 mph 3.8 mph 97 % 0.01 in
12:22 38.7 °F 37.9 °F 29.2 in West 3.8 mph 3.8 mph 97 % 0.01 in
12:27 38.7 °F 37.9 °F 29.2 in West 3.8 mph 3.8 mph 97 % 0.03 in
12:32 38.7 °F 37.9 °F 29.2 in West 3.8 mph 3.8 mph 97 % 0.03 in
12:37 38.7 °F 38.1 °F 29.2 in West 3.8 mph 3.8 mph 98 % 0.03 in
12:42 38.7 °F 38.1 °F 29.2 in West 3.8 mph 3.8 mph 98 % 0.04 in
12:47 38.7 °F 38.1 °F 29.2 in West 3.8 mph 3.8 mph 98 % 0.05 in
12:52 38.7 °F 38.1 °F 29.2 in West 3.8 mph 3.8 mph 98 % 0.05 in
12:57 38.5 °F 37.9 °F 29.2 in West 3.8 mph 3.8 mph 98 % 0.05 in
13:02 38.5 °F 37.8 °F 29.2 in West 3.8 mph 3.8 mph 98 % 0.09 in
13:07 38.5 °F 37.8 °F 29.2 in West 3.8 mph 3.8 mph 98 % 0.09 in
13:12 38.5 °F 37.9 °F 29.2 in West 3.8 mph 3.8 mph 98 % 0.12 in
13:17 38.7 °F 38.1 °F 29.2 in West 3.8 mph 3.8 mph 98 % 0.11 in
13:22 39.2 °F 38.7 °F 29.2 in West 3.8 mph 3.8 mph 98 % 0.11 in
13:27 40.1 °F 39.6 °F 29.2 in West 3.8 mph 3.8 mph 98 % 0.09 in
13:32 40.5 °F 39.9 °F 29.2 in West 3.8 mph 3.8 mph 98 % 0.09 in
13:37 40.5 °F 39.9 °F 29.2 in West 3.8 mph 3.8 mph 98 % 0.09 in
13:42 40.6 °F 40.1 °F 29.2 in West 3.8 mph 3.8 mph 98 % 0.08 in
13:47 42.1 °F 41.5 °F 29.2 in West 3.8 mph 3.8 mph 98 % 0.08 in
13:52 43 °F 42.4 °F 29.2 in West 3.8 mph 3.8 mph 98 % 0.08 in
13:57 42.6 °F 42.1 °F 29.2 in West 3.8 mph 3.8 mph 98 % 0.08 in
14:02 42.8 °F 42.3 °F 29.2 in West 3.8 mph 3.8 mph 98 % 0.04 in
14:07 42.8 °F 42.3 °F 29.2 in West 3.8 mph 3.8 mph 98 % 0.01 in
14:12 42.8 °F 42.1 °F 29.2 in West 3.8 mph 3.8 mph 97 % 0.01 in
14:17 42.8 °F 42.1 °F 29.2 in West 3.8 mph 3.8 mph 97 % 0.01 in
14:22 42.4 °F 41.5 °F 29.2 in West 3.8 mph 3.8 mph 97 % 0.01 in
14:27 42.3 °F 41.4 °F 29.2 in West 3.8 mph 3.8 mph 97 % 0.01 in
14:32 42.8 °F 41.7 °F 29.2 in West 3.8 mph 3.8 mph 96 % 0.01 in
14:37 43.2 °F 42.1 °F 29.2 in WSW 17.2 mph 17.2 mph 96 % 0.01 in
14:42 43 °F 41.5 °F 29.2 in West 13.2 mph 17.2 mph 95 % 0.01 in
14:47 43.5 °F 42.1 °F 29.2 in WSW 11 mph 17.2 mph 95 % 0 in
14:52 45 °F 43.5 °F 29.2 in WSW 11 mph 14.5 mph 95 % 0 in
14:57 45.1 °F 43.7 °F 29.2 in WSW 12.5 mph 15.2 mph 95 % 0 in
15:02 45.3 °F 43.5 °F 29.2 in West 10.5 mph 15.2 mph 93 % 0 in
15:07 45.9 °F 43.2 °F 29.2 in WSW 17 mph 17 mph 90 % 0 in
15:12 46.6 °F 43.3 °F 29.2 in West 14.8 mph 17 mph 89 % 0 in
15:17 46.6 °F 42.4 °F 29.2 in West 10.3 mph 17 mph 86 % 0 in
15:22 46.9 °F 43 °F 29.2 in WSW 14.5 mph 15.9 mph 86 % 0 in
15:27 46.6 °F 42.1 °F 29.2 in WSW 13.2 mph 17.2 mph 84 % 0 in
15:32 46.6 °F 41.4 °F 29.2 in WSW 17.4 mph 17.4 mph 82 % 0 in
15:37 46.9 °F 41.2 °F 29.2 in WSW 17.4 mph 17.7 mph 80 % 0 in
15:42 46.6 °F 39.6 °F 29.2 in WSW 13.2 mph 24.2 mph 76 % 0 in
15:47 46.6 °F 39 °F 29.2 in West 19.9 mph 24.2 mph 75 % 0 in
15:52 45.9 °F 38.1 °F 29.2 in WNW 14.5 mph 21.9 mph 74 % 0 in
15:57 45.9 °F 38.3 °F 29.2 in WSW 11 mph 19.2 mph 75 % 0 in
16:00 45.9 °F 38.3 °F 29.2 in WSW 14.5 mph 19.2 mph 75 % 0 in
16:05 45.9 °F 37.8 °F 29.2 in WSW 11.2 mph 19 mph 73 % 0 in
16:10 46.2 °F 36.7 °F 29.2 in West 16.6 mph 25.9 mph 69 % 0 in
16:15 46.2 °F 35.4 °F 29.2 in West 17.9 mph 25.9 mph 66 % 0 in
16:20 46.6 °F 36.1 °F 29.2 in West 19.5 mph 24.6 mph 67 % 0 in
16:25 46.6 °F 35.2 °F 29.3 in West 15.9 mph 22.4 mph 65 % 0 in
16:30 46.2 °F 35.2 °F 29.3 in WSW 19 mph 21.9 mph 65 % 0 in
16:35 46 °F 34.5 °F 29.3 in West 17.2 mph 20.6 mph 64 % 0 in
16:40 45.9 °F 33.1 °F 29.3 in West 22.4 mph 22.8 mph 61 % 0 in
16:41 45.7 °F 32.2 °F 29.3 in West 13 mph 22.8 mph 59 % 0 in
16:46 45.7 °F 32.5 °F 29.3 in WSW 17 mph 22.8 mph 60 % 0 in
16:51 45.7 °F 32.9 °F 29.3 in WSW 17.2 mph 22.1 mph 61 % 0 in
16:56 45.1 °F 33.4 °F 29.3 in West 11 mph 22.1 mph 63 % 0 in
17:01 45.1 °F 34.3 °F 29.3 in WSW 17.9 mph 19.5 mph 66 % 0 in
17:06 44.4 °F 33.1 °F 29.3 in West 15.4 mph 22.4 mph 64 % 0 in
17:11 44.2 °F 32.9 °F 29.3 in WSW 13.2 mph 22.4 mph 64 % 0 in
17:16 44.2 °F 33.4 °F 29.3 in West 10.1 mph 19.9 mph 66 % 0 in
17:21 44.1 °F 34.2 °F 29.3 in WSW 13.4 mph 19.7 mph 68 % 0 in
17:26 43.9 °F 34 °F 29.3 in West 14.5 mph 20.8 mph 68 % 0 in
17:31 43.5 °F 33.1 °F 29.3 in West 13.2 mph 20.8 mph 66 % 0 in
17:36 43.5 °F 33.6 °F 29.3 in West 8.5 mph 19.9 mph 68 % 0 in
17:41 43.5 °F 34 °F 29.3 in WSW 13 mph 17 mph 69 % 0 in
17:46 43.5 °F 34.3 °F 29.3 in West 9.6 mph 17 mph 70 % 0 in
17:51 43.3 °F 34.5 °F 29.3 in WSW 10.3 mph 15.4 mph 71 % 0 in
17:56 43.3 °F 35.2 °F 29.3 in West 13.2 mph 15.7 mph 73 % 0 in
18:01 43.3 °F 35.2 °F 29.3 in WSW 8.5 mph 15.7 mph 73 % 0 in
18:06 43.2 °F 35.4 °F 29.3 in WSW 10.7 mph 16.8 mph 74 % 0 in
18:11 43.3 °F 35.2 °F 29.3 in WSW 14.8 mph 20.4 mph 73 % 0 in
18:16 43.3 °F 35.2 °F 29.3 in WSW 10.3 mph 20.4 mph 73 % 0 in
18:21 43.3 °F 35.2 °F 29.3 in West 13.2 mph 17.4 mph 73 % 0 in
18:26 43.3 °F 35.6 °F 29.3 in West 12.8 mph 15.4 mph 74 % 0 in
18:31 43.3 °F 35.2 °F 29.3 in West 14.1 mph 20.6 mph 73 % 0 in
18:36 43.3 °F 35.6 °F 29.3 in WSW 10.7 mph 20.6 mph 74 % 0 in
18:41 43.2 °F 34.7 °F 29.3 in West 8.9 mph 14.8 mph 72 % 0 in
18:46 43 °F 34.5 °F 29.3 in WSW 8.5 mph 14.8 mph 72 % 0 in
18:51 42.8 °F 34.7 °F 29.3 in WSW 6.5 mph 10.5 mph 73 % 0 in
18:56 42.6 °F 34.9 °F 29.3 in WSW 4.7 mph 10.5 mph 74 % 0 in
19:01 42.6 °F 35.2 °F 29.3 in WSW 6.3 mph 8.1 mph 75 % 0 in
19:06 42.6 °F 35.4 °F 29.3 in WSW 7.8 mph 9.6 mph 76 % 0 in
19:11 42.6 °F 36 °F 29.3 in WSW 7.6 mph 9.6 mph 77 % 0 in
19:16 42.8 °F 36 °F 29.3 in WSW 6.7 mph 8.7 mph 77 % 0 in
19:21 42.8 °F 36 °F 29.3 in South 4.9 mph 8.7 mph 77 % 0 in
19:26 43 °F 36.5 °F 29.3 in SW 5.6 mph 10.1 mph 78 % 0 in
19:31 43.2 °F 36.7 °F 29.3 in SW 6.9 mph 12.1 mph 78 % 0 in
19:36 43.2 °F 36.7 °F 29.3 in WSW 9.8 mph 13.2 mph 78 % 0 in
19:41 43.2 °F 36.7 °F 29.3 in WSW 20.8 mph 23 mph 78 % 0 in
19:46 42.8 °F 37 °F 29.3 in WSW 13 mph 24.2 mph 80 % 0 in
19:51 42.4 °F 37.2 °F 29.3 in WSW 25.1 mph 25.1 mph 82 % 0 in
19:56 42.1 °F 37.2 °F 29.3 in WSW 19.5 mph 25.1 mph 83 % 0 in
20:01 41.9 °F 37.8 °F 29.3 in WSW 10.1 mph 23.7 mph 85 % 0 in
20:06 41.5 °F 37.6 °F 29.3 in WSW 10.3 mph 19.5 mph 86 % 0 in
20:11 41.4 °F 38.1 °F 29.3 in West 10.1 mph 15.9 mph 88 % 0.01 in
20:16 41.2 °F 38.1 °F 29.3 in WSW 13.2 mph 15.9 mph 89 % 0.03 in
20:21 41 °F 38.7 °F 29.3 in WSW 10.1 mph 13.2 mph 91 % 0.03 in
20:26 40.8 °F 39 °F 29.3 in WSW 15.2 mph 17 mph 93 % 0.03 in
20:31 40.5 °F 38.8 °F 29.3 in West 19.5 mph 24.6 mph 94 % 0.07 in
20:36 40.5 °F 39 °F 29.3 in WSW 17.2 mph 24.6 mph 95 % 0.08 in
20:41 40.5 °F 39 °F 29.3 in WSW 15.2 mph 20.1 mph 95 % 0.08 in
20:46 40.3 °F 39.2 °F 29.3 in WSW 10.1 mph 17.2 mph 96 % 0.08 in
20:51 40.3 °F 39.2 °F 29.3 in WSW 11.2 mph 15.2 mph 96 % 0.08 in
20:56 40.3 °F 39.2 °F 29.4 in SW 11 mph 15.2 mph 96 % 0.08 in
21:01 40.5 °F 39.7 °F 29.4 in SW 10.1 mph 14.8 mph 97 % 0.08 in
21:06 40.5 °F 39.7 °F 29.4 in SSW 11.2 mph 15.9 mph 97 % 0.07 in
21:11 40.5 °F 39.7 °F 29.4 in WSW 10.5 mph 15.9 mph 97 % 0.07 in
21:16 40.5 °F 39.7 °F 29.4 in WSW 9.8 mph 13.4 mph 97 % 0.05 in
21:21 40.6 °F 39.9 °F 29.4 in SW 7.4 mph 11.2 mph 97 % 0.05 in
21:26 40.6 °F 40.1 °F 29.4 in WSW 6.5 mph 12.1 mph 98 % 0.05 in
21:31 40.8 °F 39.9 °F 29.4 in SSW 7.4 mph 12.1 mph 97 % 0 in
21:36 40.8 °F 39.9 °F 29.4 in WSW 6 mph 10.5 mph 97 % 0 in
21:41 41 °F 40.3 °F 29.4 in SW 10.7 mph 14.1 mph 97 % 0 in
21:46 41.2 °F 40.6 °F 29.4 in WSW 12.5 mph 14.1 mph 98 % 0 in
21:51 41.2 °F 40.6 °F 29.4 in SW 10.1 mph 12.8 mph 98 % 0 in
21:56 41.2 °F 40.6 °F 29.4 in WSW 10.5 mph 12.8 mph 98 % 0 in
22:01 41.4 °F 40.8 °F 29.4 in WSW 7.4 mph 12.3 mph 98 % 0 in
22:06 41.4 °F 40.8 °F 29.4 in WSW 9.8 mph 12.3 mph 98 % 0 in
22:11 41.5 °F 41 °F 29.4 in WSW 12.3 mph 13.6 mph 98 % 0 in
22:16 41.7 °F 41.2 °F 29.4 in WSW 10.5 mph 13.6 mph 98 % 0 in
22:21 41.9 °F 41.4 °F 29.4 in WSW 11 mph 12.8 mph 98 % 0 in
22:26 42.1 °F 41.5 °F 29.4 in WSW 8.7 mph 12.8 mph 98 % 0 in
22:31 42.3 °F 41.7 °F 29.4 in SSW 9.6 mph 12.5 mph 98 % 0 in
22:36 42.3 °F 41.7 °F 29.4 in WSW 8.7 mph 12.5 mph 98 % 0 in
22:41 42.3 °F 41.7 °F 29.4 in SW 7.6 mph 12.1 mph 98 % 0 in
22:46 42.3 °F 41.7 °F 29.4 in SSW 8.7 mph 10.5 mph 98 % 0 in
22:51 42.3 °F 41.7 °F 29.4 in SW 9.8 mph 11.4 mph 98 % 0 in
22:56 42.4 °F 41.9 °F 29.4 in SW 8.5 mph 11.4 mph 98 % 0 in
23:01 42.4 °F 41.9 °F 29.4 in WSW 13.2 mph 13.2 mph 98 % 0 in
23:06 42.3 °F 41.7 °F 29.4 in WSW 8.5 mph 13.2 mph 98 % 0 in
23:11 42.3 °F 41.7 °F 29.4 in WSW 12.5 mph 14.8 mph 98 % 0 in
23:16 42.3 °F 41.7 °F 29.4 in SW 7.6 mph 14.8 mph 98 % 0 in
23:21 42.1 °F 41.5 °F 29.4 in SW 12.5 mph 12.5 mph 98 % 0 in
23:26 42.3 °F 41.7 °F 29.4 in SW 12.3 mph 14.5 mph 98 % 0 in
23:31 42.1 °F 41.5 °F 29.4 in WSW 7.8 mph 17.4 mph 98 % 0.01 in
23:36 42.3 °F 41.7 °F 29.4 in WSW 13.2 mph 17.4 mph 98 % 0.01 in
23:41 42.3 °F 41.7 °F 29.4 in SSW 10.1 mph 13.2 mph 98 % 0.01 in
23:46 42.3 °F 41.7 °F 29.4 in SW 5.6 mph 13.2 mph 98 % 0.01 in
23:51 42.4 °F 41.9 °F 29.4 in SSW 10.3 mph 11.9 mph 98 % 0.01 in
23:56 42.6 °F 41.7 °F 29.4 in WSW 10.7 mph 13 mph 97 % 0.01 in
Le Gheer Warneton
Courtoisie de Weather Underground - 2.25 mb

Mise a jour : 17-12-17 07:20:13
Généré par Cumulus 1.9.4 (1099)